Weather at Allenwood Airstrip

Public forecast

Using degrees Celsius for public forecast. Weather courtesy of forecast.io.

Closest aviation weather report (METAR) to Allenwood Airstrip

Closest report is Casement Air Base, 14.1 nm (26.1 km) E.

2024/05/27 22:00 (retrieved 28 minutes ago)

EIME 272200Z 20009KT 9999 FEW025 BKN050 12/09 Q1010

Closest aviation forecast (TAF) to Allenwood Airstrip

Closest forecast is Dublin Airport, 22.8 nm (42.3 km) ENE.

2024/05/27 18:09 (retrieved 4 hours ago)

TAF EIDW 271700Z 2718/2818 22008KT 9999 FEW018 SCT030 BECMG 2719/2721 19005KT BECMG 2802/2804 14009KT TEMPO 2803/2810 4000 -RA BKN010 PROB30 TEMPO 2804/2807 2500 RADZ BKN005 BECMG 2806/2808 24012KT PROB40 TEMPO 2811/2818 25014G25KT PROB40 TEMPO 2812/2815 -SHRA FEW020CB TEMPO 2815/2818 -SHRA SCT020CB PROB30 TEMPO 2815/2817 4000 SHRA